createdAt,value
2023-03-26T00:01:23.851Z,8.70
2023-03-26T00:03:53.924Z,8.90
2023-03-26T00:06:22.850Z,8.58
2023-03-26T00:08:50.069Z,8.54
2023-03-26T00:11:20.824Z,8.90
2023-03-26T00:13:47.714Z,8.92
2023-03-26T00:16:16.319Z,8.91
2023-03-26T00:18:43.638Z,8.93
2023-03-26T00:21:13.410Z,9.01
2023-03-26T00:23:39.986Z,8.99
2023-03-26T00:26:10.512Z,8.99
2023-03-26T00:28:40.335Z,7.98
2023-03-26T00:31:09.190Z,8.95
2023-03-26T00:33:40.529Z,8.86
2023-03-26T00:36:10.809Z,8.92
2023-03-26T00:38:39.091Z,8.99
2023-03-26T00:41:08.094Z,8.96
2023-03-26T00:43:36.239Z,8.99
2023-03-26T00:46:05.046Z,8.97
2023-03-26T00:48:42.203Z,8.82
2023-03-26T00:51:15.226Z,8.88
2023-03-26T00:53:42.695Z,8.95
2023-03-26T00:56:09.915Z,8.97
2023-03-26T00:58:37.158Z,8.80
2023-03-26T01:01:07.885Z,7.42
2023-03-26T01:03:36.518Z,8.02
2023-03-26T01:06:08.021Z,8.67
2023-03-26T01:08:38.403Z,8.79
2023-03-26T01:11:14.025Z,8.89
2023-03-26T01:13:43.365Z,8.93
2023-03-26T01:16:20.350Z,8.74
2023-03-26T01:18:48.713Z,8.46
2023-03-26T01:21:22.633Z,8.57
2023-03-26T01:23:59.789Z,8.81
2023-03-26T01:26:48.443Z,8.39
2023-03-26T01:29:21.038Z,8.81
2023-03-26T01:31:56.688Z,8.87
2023-03-26T01:34:37.410Z,8.66
2023-03-26T01:37:15.297Z,8.23
2023-03-26T01:39:53.006Z,8.77
2023-03-26T01:42:28.062Z,8.15
2023-03-26T01:44:59.411Z,8.73
2023-03-26T01:47:27.306Z,8.44
2023-03-26T01:49:53.944Z,8.60
2023-03-26T01:52:25.100Z,8.58
2023-03-26T01:54:54.580Z,8.81
2023-03-26T01:57:32.773Z,8.42
2023-03-26T02:00:12.109Z,8.50
2023-03-26T02:02:50.709Z,8.53
2023-03-26T02:05:23.711Z,8.51
2023-03-26T02:07:58.551Z,7.70
2023-03-26T02:10:29.667Z,8.50
2023-03-26T02:12:58.021Z,8.66
2023-03-26T02:15:25.221Z,8.79
2023-03-26T02:17:53.044Z,8.81
2023-03-26T02:20:21.167Z,7.99
2023-03-26T02:22:48.058Z,8.71
2023-03-26T02:25:17.588Z,8.78
2023-03-26T02:27:46.416Z,8.76
2023-03-26T02:30:16.011Z,8.76
2023-03-26T02:32:43.778Z,8.80
2023-03-26T02:35:11.430Z,8.80
2023-03-26T02:37:38.332Z,8.82
2023-03-26T02:40:10.958Z,8.81
2023-03-26T02:42:38.304Z,8.82
2023-03-26T02:45:07.199Z,8.80
2023-03-26T02:47:33.949Z,8.80
2023-03-26T02:50:01.467Z,8.80
2023-03-26T02:52:28.035Z,8.81
2023-03-26T02:54:54.647Z,8.84
2023-03-26T02:57:21.412Z,8.84
2023-03-26T02:59:50.322Z,8.83
2023-03-26T03:02:19.357Z,8.80
2023-03-26T03:04:46.038Z,8.83
2023-03-26T03:07:14.905Z,8.74
2023-03-26T03:09:41.670Z,7.64
2023-03-26T03:12:08.336Z,8.17
2023-03-26T03:14:34.942Z,7.45
2023-03-26T03:17:01.571Z,8.19
2023-03-26T03:19:29.473Z,8.45
2023-03-26T03:21:56.197Z,8.68
2023-03-26T03:24:23.424Z,8.73
2023-03-26T03:26:50.340Z,8.75
2023-03-26T03:29:17.371Z,8.79
2023-03-26T03:31:43.946Z,7.45
2023-03-26T03:34:10.595Z,7.89
2023-03-26T03:36:38.745Z,8.65
2023-03-26T03:39:05.539Z,8.70
2023-03-26T03:41:32.138Z,8.12
2023-03-26T03:43:59.845Z,8.67
2023-03-26T03:46:26.559Z,8.73
2023-03-26T03:48:53.168Z,8.73
2023-03-26T03:51:19.823Z,8.33
2023-03-26T03:53:47.779Z,7.88
2023-03-26T03:56:14.806Z,8.25
2023-03-26T03:58:42.210Z,8.56
2023-03-26T04:01:08.933Z,8.71
2023-03-26T04:03:38.818Z,8.71
2023-03-26T04:06:07.024Z,8.71
2023-03-26T04:08:34.708Z,7.76
2023-03-26T04:11:03.039Z,8.53
2023-03-26T04:13:29.638Z,8.37
2023-03-26T04:15:56.860Z,7.03
2023-03-26T04:18:23.889Z,8.51
2023-03-26T04:20:50.774Z,8.50
2023-03-26T04:23:18.894Z,8.64
2023-03-26T04:25:49.459Z,8.69
2023-03-26T04:28:26.636Z,8.56
2023-03-26T04:30:54.598Z,8.51
2023-03-26T04:33:21.464Z,8.60
2023-03-26T04:35:48.470Z,7.24
2023-03-26T04:38:16.802Z,6.49
2023-03-26T04:40:47.235Z,6.87
2023-03-26T04:43:16.388Z,8.34
2023-03-26T04:45:45.830Z,8.50
2023-03-26T04:48:15.701Z,8.52
2023-03-26T04:50:42.875Z,8.55
2023-03-26T04:53:13.490Z,8.58
2023-03-26T04:55:45.472Z,8.58
2023-03-26T04:58:14.343Z,8.58
2023-03-26T05:00:41.468Z,8.18
2023-03-26T05:03:11.740Z,8.23
2023-03-26T05:05:39.316Z,8.51
2023-03-26T05:08:06.613Z,8.55
2023-03-26T05:10:33.356Z,8.54
2023-03-26T05:12:59.978Z,8.54
2023-03-26T05:15:26.680Z,8.58
2023-03-26T05:17:55.446Z,8.57
2023-03-26T05:20:30.177Z,8.52
2023-03-26T05:22:56.915Z,8.42
2023-03-26T05:25:23.766Z,8.53
2023-03-26T05:27:50.447Z,8.55
2023-03-26T05:30:19.257Z,8.56
2023-03-26T05:32:48.786Z,8.55
2023-03-26T05:35:19.302Z,8.56
2023-03-26T05:37:48.000Z,8.59
2023-03-26T05:40:16.698Z,8.58
2023-03-26T05:42:43.979Z,8.62
2023-03-26T05:45:13.351Z,8.20
2023-03-26T05:47:40.216Z,8.48
2023-03-26T05:50:08.868Z,8.40
2023-03-26T05:52:35.511Z,8.50
2023-03-26T05:55:03.921Z,8.48
2023-03-26T05:57:30.909Z,8.53
2023-03-26T05:59:57.529Z,8.53
2023-03-26T06:02:24.291Z,8.52
2023-03-26T06:04:51.073Z,8.53
2023-03-26T06:07:18.391Z,7.89
2023-03-26T06:09:45.234Z,6.73
2023-03-26T06:12:13.409Z,7.94
2023-03-26T06:14:42.617Z,8.26
2023-03-26T06:17:10.263Z,8.42
2023-03-26T06:19:36.886Z,8.45
2023-03-26T06:22:04.652Z,8.44
2023-03-26T06:24:32.307Z,8.46
2023-03-26T06:26:58.875Z,8.45
2023-03-26T06:29:27.199Z,7.86
2023-03-26T06:31:53.971Z,8.36
2023-03-26T06:34:21.104Z,8.44
2023-03-26T06:36:48.822Z,8.44
2023-03-26T06:39:15.992Z,8.46
2023-03-26T06:41:42.587Z,8.52
2023-03-26T06:44:09.364Z,8.49
2023-03-26T06:46:37.676Z,8.45
2023-03-26T06:49:04.617Z,8.42
2023-03-26T06:51:31.191Z,8.47
2023-03-26T06:53:59.806Z,8.46
2023-03-26T06:56:26.392Z,8.49
2023-03-26T06:58:53.007Z,8.40
2023-03-26T07:01:19.730Z,8.47
2023-03-26T07:03:47.735Z,8.52
2023-03-26T07:06:14.627Z,8.50
2023-03-26T07:08:41.418Z,8.46
2023-03-26T07:11:08.097Z,8.47
2023-03-26T07:13:34.716Z,8.49
2023-03-26T07:16:01.316Z,8.47
2023-03-26T07:18:28.002Z,8.50
2023-03-26T07:20:57.032Z,8.47
2023-03-26T07:23:24.366Z,8.49
2023-03-26T07:25:51.909Z,8.48
2023-03-26T07:28:25.620Z,8.52
2023-03-26T07:31:07.326Z,8.51
2023-03-26T07:33:41.962Z,8.51
2023-03-26T07:36:22.529Z,8.46
2023-03-26T07:39:00.425Z,8.48
2023-03-26T07:41:32.772Z,8.50
2023-03-26T07:44:18.411Z,8.49
2023-03-26T07:46:47.829Z,8.47
2023-03-26T07:49:17.800Z,8.47
2023-03-26T07:51:46.476Z,8.49
2023-03-26T07:54:16.646Z,8.47
2023-03-26T07:56:55.857Z,8.49
2023-03-26T07:59:29.878Z,8.48
2023-03-26T08:02:24.266Z,8.51
2023-03-26T08:05:04.771Z,8.54
2023-03-26T08:07:46.985Z,8.49
2023-03-26T08:10:21.709Z,8.52
2023-03-26T08:12:55.639Z,8.53
2023-03-26T08:15:29.258Z,8.44
2023-03-26T08:18:01.132Z,8.47
2023-03-26T08:20:36.466Z,8.52
2023-03-26T08:23:13.827Z,8.68
2023-03-26T08:25:53.339Z,8.67
2023-03-26T08:28:32.063Z,8.52
2023-03-26T08:31:02.814Z,8.59
2023-03-26T08:33:30.836Z,8.61
2023-03-26T08:35:57.673Z,8.56
2023-03-26T08:38:25.679Z,8.54
2023-03-26T08:41:38.014Z,8.54
2023-03-26T08:44:48.746Z,8.53
2023-03-26T08:47:43.781Z,8.62
2023-03-26T08:50:36.265Z,8.60
2023-03-26T08:53:53.606Z,8.56
2023-03-26T08:56:29.529Z,8.58
2023-03-26T08:59:26.474Z,8.69
2023-03-26T09:02:19.558Z,8.58
2023-03-26T09:05:17.468Z,8.61
2023-03-26T09:08:10.383Z,8.58
2023-03-26T09:10:52.142Z,8.64
2023-03-26T09:13:50.295Z,8.59
2023-03-26T09:16:58.475Z,8.59
2023-03-26T09:20:01.654Z,8.73
2023-03-26T09:22:58.977Z,8.72
2023-03-26T09:25:48.380Z,8.63
2023-03-26T09:28:50.236Z,8.57
2023-03-26T09:31:37.212Z,8.58
2023-03-26T09:34:27.496Z,8.63
2023-03-26T09:36:57.277Z,8.67
2023-03-26T09:39:37.401Z,8.67
2023-03-26T09:42:17.931Z,8.65
2023-03-26T09:45:10.649Z,8.68
2023-03-26T09:47:58.557Z,8.69
2023-03-26T09:50:37.238Z,8.68
2023-03-26T09:53:18.750Z,8.67
2023-03-26T09:56:09.066Z,8.65
2023-03-26T09:58:52.037Z,8.64
2023-03-26T10:01:32.080Z,8.57
2023-03-26T10:04:33.018Z,8.66
2023-03-26T10:07:08.578Z,8.72
2023-03-26T10:09:52.122Z,8.70
2023-03-26T10:12:25.497Z,8.70
2023-03-26T10:15:04.100Z,8.68
2023-03-26T10:17:45.622Z,8.71
2023-03-26T10:20:33.794Z,8.70
2023-03-26T10:23:14.493Z,8.91
2023-03-26T10:26:01.407Z,8.58
2023-03-26T10:28:56.741Z,8.68
2023-03-26T10:31:39.570Z,8.48
2023-03-26T10:34:28.042Z,8.54
2023-03-26T10:37:05.875Z,8.76
2023-03-26T10:40:00.881Z,8.15
2023-03-26T10:43:00.993Z,8.11
2023-03-26T10:45:40.802Z,8.77
2023-03-26T10:48:34.925Z,8.45
2023-03-26T10:51:24.668Z,8.74
2023-03-26T10:53:57.039Z,8.70
2023-03-26T10:56:27.471Z,8.72
2023-03-26T10:58:55.238Z,8.77
2023-03-26T11:01:32.477Z,9.08
2023-03-26T11:04:10.925Z,8.79
2023-03-26T11:06:45.610Z,8.47
2023-03-26T11:09:26.085Z,8.84
2023-03-26T11:12:00.567Z,8.77
2023-03-26T11:14:35.216Z,8.83
2023-03-26T11:17:14.807Z,9.32
2023-03-26T11:20:04.946Z,9.23
2023-03-26T11:22:42.469Z,9.53
2023-03-26T11:25:35.878Z,9.87
2023-03-26T11:28:14.069Z,9.17
2023-03-26T11:30:48.847Z,9.41
2023-03-26T11:33:20.777Z,9.84
2023-03-26T11:35:49.803Z,9.88
2023-03-26T11:38:23.148Z,10.02
2023-03-26T11:40:53.327Z,9.96
2023-03-26T11:43:24.591Z,10.18
2023-03-26T11:45:51.858Z,10.12
2023-03-26T11:48:23.015Z,10.13
2023-03-26T11:50:55.766Z,10.29
2023-03-26T11:53:29.059Z,9.45
2023-03-26T11:56:03.650Z,9.52
2023-03-26T11:58:34.323Z,9.49
2023-03-26T12:01:04.645Z,9.22
2023-03-26T12:03:31.907Z,9.53
2023-03-26T12:05:59.889Z,9.30
2023-03-26T12:08:33.632Z,9.25
2023-03-26T12:11:06.375Z,9.49
2023-03-26T12:13:36.602Z,9.57
2023-03-26T12:16:09.758Z,9.59
2023-03-26T12:18:39.749Z,9.76
2023-03-26T12:21:09.106Z,10.11
2023-03-26T12:23:50.902Z,9.60
2023-03-26T12:26:20.656Z,9.54
2023-03-26T12:28:49.288Z,9.65
2023-03-26T12:31:20.579Z,9.34
2023-03-26T12:34:04.390Z,9.23
2023-03-26T12:36:35.848Z,9.19
2023-03-26T12:40:10.275Z,9.22
2023-03-26T12:44:53.470Z,9.01
2023-03-26T12:45:14.753Z,9.14
2023-03-26T12:47:57.876Z,9.13
2023-03-26T12:50:38.433Z,9.21
2023-03-26T12:53:28.239Z,9.21
2023-03-26T12:56:01.391Z,9.25
2023-03-26T12:58:43.974Z,9.29
2023-03-26T13:01:22.204Z,9.28
2023-03-26T13:04:07.054Z,9.24
2023-03-26T13:06:59.402Z,9.15
2023-03-26T13:09:52.840Z,9.22
2023-03-26T13:12:34.103Z,8.99
2023-03-26T13:15:17.697Z,9.16
2023-03-26T13:17:53.874Z,8.90
2023-03-26T13:20:28.109Z,9.16
2023-03-26T13:23:01.325Z,9.19
2023-03-26T13:25:37.664Z,9.16
2023-03-26T13:28:19.668Z,9.21
2023-03-26T13:30:52.626Z,9.24
2023-03-26T13:33:31.593Z,9.23
2023-03-26T13:36:21.803Z,9.21
2023-03-26T13:39:03.415Z,9.18
2023-03-26T13:41:43.298Z,8.58
2023-03-26T13:44:18.390Z,8.95
2023-03-26T13:46:48.912Z,8.29
2023-03-26T13:49:19.065Z,8.89
2023-03-26T13:51:51.380Z,9.06
2023-03-26T13:54:25.955Z,9.09
2023-03-26T13:56:59.022Z,9.10
2023-03-26T13:59:34.724Z,9.15
2023-03-26T14:02:08.798Z,9.10
2023-03-26T14:04:39.130Z,9.13
2023-03-26T14:07:12.414Z,9.15
2023-03-26T14:09:46.241Z,9.14
2023-03-26T14:12:30.676Z,9.01
2023-03-26T14:15:01.894Z,9.11
2023-03-26T14:17:34.502Z,9.21
2023-03-26T14:20:48.382Z,9.00
2023-03-26T14:23:31.098Z,9.09
2023-03-26T14:26:13.971Z,9.16
2023-03-26T14:29:08.837Z,9.17
2023-03-26T14:31:42.809Z,9.17
2023-03-26T14:34:28.952Z,9.14
2023-03-26T14:37:27.484Z,9.20
2023-03-26T14:40:14.808Z,9.12
2023-03-26T14:42:43.472Z,9.13
2023-03-26T14:45:32.077Z,9.16
2023-03-26T14:48:17.491Z,9.17
2023-03-26T14:51:00.928Z,9.18
2023-03-26T14:53:33.457Z,9.19
2023-03-26T14:56:41.833Z,9.27
2023-03-26T14:59:41.096Z,9.18
2023-03-26T15:02:55.534Z,9.25
2023-03-26T15:05:59.255Z,9.21
2023-03-26T15:09:10.426Z,9.17
2023-03-26T15:11:45.912Z,9.18
2023-03-26T15:14:48.227Z,9.19
2023-03-26T15:17:49.716Z,9.20
2023-03-26T15:20:49.331Z,9.19
2023-03-26T15:23:36.636Z,9.20
2023-03-26T15:26:37.128Z,9.23
2023-03-26T15:29:28.336Z,9.22
2023-03-26T15:32:22.286Z,9.17
2023-03-26T15:35:20.799Z,9.18
2023-03-26T15:38:22.283Z,9.19
2023-03-26T15:41:12.444Z,9.26
2023-03-26T15:44:26.563Z,9.27
2023-03-26T15:47:20.004Z,9.28
2023-03-26T15:49:54.783Z,9.20
2023-03-26T15:52:28.309Z,9.22
2023-03-26T15:55:02.316Z,9.23
2023-03-26T15:57:34.408Z,9.24
2023-03-26T16:00:19.789Z,9.22
2023-03-26T16:02:58.024Z,9.23
2023-03-26T16:05:37.256Z,9.19
2023-03-26T16:08:16.570Z,9.20
2023-03-26T16:10:49.555Z,9.20
2023-03-26T16:13:37.729Z,9.23
2023-03-26T16:16:24.502Z,9.23
2023-03-26T16:18:58.408Z,9.24
2023-03-26T16:21:45.744Z,9.21
2023-03-26T16:24:24.943Z,9.23
2023-03-26T16:27:21.127Z,9.24
2023-03-26T16:30:25.514Z,9.09
2023-03-26T16:32:58.556Z,8.77
2023-03-26T16:36:02.044Z,8.70
2023-03-26T16:38:50.134Z,9.07
2023-03-26T16:41:18.326Z,9.08
2023-03-26T16:43:59.501Z,9.17
2023-03-26T16:46:36.401Z,8.54
2023-03-26T16:49:10.020Z,8.10
2023-03-26T16:52:02.401Z,7.83
2023-03-26T16:54:41.037Z,7.50
2023-03-26T16:57:21.689Z,7.48
2023-03-26T17:00:06.793Z,8.16
2023-03-26T17:02:46.272Z,8.61
2023-03-26T17:05:19.800Z,8.99
2023-03-26T17:07:57.202Z,9.02
2023-03-26T17:10:31.951Z,9.08
2023-03-26T17:13:06.333Z,8.97
2023-03-26T17:15:42.597Z,8.77
2023-03-26T17:18:30.389Z,8.16
2023-03-26T17:21:02.423Z,8.11
2023-03-26T17:23:49.886Z,8.12
2023-03-26T17:26:24.796Z,9.02
2023-03-26T17:29:01.845Z,8.66
2023-03-26T17:31:38.313Z,8.54
2023-03-26T17:34:33.012Z,8.73
2023-03-26T17:37:00.929Z,7.51
2023-03-26T17:40:12.169Z,6.45
2023-03-26T17:43:01.093Z,5.65
2023-03-26T17:45:30.908Z,6.34
2023-03-26T17:48:02.273Z,6.01
2023-03-26T17:50:32.556Z,6.90
2023-03-26T17:53:01.993Z,7.24
2023-03-26T17:55:31.509Z,8.24
2023-03-26T17:58:01.353Z,8.17
2023-03-26T18:00:31.134Z,8.54
2023-03-26T18:03:01.669Z,8.41
2023-03-26T18:05:30.622Z,8.32
2023-03-26T18:08:37.076Z,8.30
2023-03-26T18:11:21.842Z,7.81
2023-03-26T18:14:08.148Z,8.32
2023-03-26T18:16:38.935Z,8.53
2023-03-26T18:19:22.339Z,7.28
2023-03-26T18:21:51.306Z,7.53
2023-03-26T18:24:22.096Z,8.05
2023-03-26T18:26:53.908Z,5.71
2023-03-26T18:29:24.728Z,6.85
2023-03-26T18:31:55.149Z,5.80
2023-03-26T18:34:22.392Z,7.25
2023-03-26T18:37:01.086Z,8.20
2023-03-26T18:39:28.253Z,8.32
2023-03-26T18:41:55.052Z,8.46
2023-03-26T18:44:23.203Z,8.57
2023-03-26T18:46:54.504Z,8.40
2023-03-26T18:49:23.890Z,8.64
2023-03-26T18:51:57.340Z,8.56
2023-03-26T18:54:29.905Z,8.66
2023-03-26T18:56:58.860Z,7.14
2023-03-26T18:59:29.111Z,8.44
2023-03-26T19:01:57.660Z,8.61
2023-03-26T19:04:25.678Z,8.58
2023-03-26T19:06:56.876Z,6.34
2023-03-26T19:09:31.559Z,8.12
2023-03-26T19:12:05.972Z,8.39
2023-03-26T19:14:36.941Z,7.55
2023-03-26T19:17:06.865Z,8.46
2023-03-26T19:19:37.587Z,8.52
2023-03-26T19:22:04.655Z,6.96
2023-03-26T19:24:31.803Z,8.02
2023-03-26T19:26:58.575Z,6.81
2023-03-26T19:29:28.717Z,8.22
2023-03-26T19:32:03.994Z,7.03
2023-03-26T19:34:33.702Z,8.21
2023-03-26T19:37:01.412Z,7.10
2023-03-26T19:39:38.589Z,8.30
2023-03-26T19:42:06.442Z,6.51
2023-03-26T19:44:39.461Z,7.76
2023-03-26T19:47:14.976Z,8.25
2023-03-26T19:49:49.888Z,7.59
2023-03-26T19:52:21.736Z,7.05
2023-03-26T19:55:00.349Z,8.04
2023-03-26T19:57:29.059Z,8.32
2023-03-26T19:59:56.026Z,8.35
2023-03-26T20:02:26.570Z,5.25
2023-03-26T20:04:53.299Z,6.74
2023-03-26T20:07:22.062Z,7.19
2023-03-26T20:10:03.113Z,7.79
2023-03-26T20:12:29.763Z,7.91
2023-03-26T20:14:56.767Z,8.18
2023-03-26T20:17:24.887Z,7.60
2023-03-26T20:19:52.433Z,7.36
2023-03-26T20:22:23.587Z,7.80
2023-03-26T20:24:51.318Z,7.15
2023-03-26T20:27:18.795Z,6.19
2023-03-26T20:29:45.894Z,6.77
2023-03-26T20:32:19.474Z,8.01
2023-03-26T20:34:49.126Z,8.06
2023-03-26T20:37:16.038Z,7.22
2023-03-26T20:39:43.144Z,8.11
2023-03-26T20:42:12.219Z,7.12
2023-03-26T20:44:40.568Z,7.79
2023-03-26T20:47:09.212Z,7.19
2023-03-26T20:49:35.855Z,6.87
2023-03-26T20:52:03.998Z,7.22
2023-03-26T20:54:30.667Z,7.57
2023-03-26T20:56:58.062Z,8.11
2023-03-26T20:59:27.446Z,7.71
2023-03-26T21:01:56.388Z,7.71
2023-03-26T21:04:23.318Z,7.89
2023-03-26T21:06:50.114Z,8.06
2023-03-26T21:09:23.550Z,8.14
2023-03-26T21:11:56.979Z,6.40
2023-03-26T21:14:26.983Z,7.42
2023-03-26T21:16:54.186Z,7.87
2023-03-26T21:19:21.514Z,7.29
2023-03-26T21:21:57.662Z,7.72
2023-03-26T21:24:37.566Z,7.53
2023-03-26T21:27:12.563Z,6.41
2023-03-26T21:29:40.966Z,6.87
2023-03-26T21:32:10.479Z,5.88
2023-03-26T21:34:42.001Z,5.92
2023-03-26T21:37:12.844Z,6.16
2023-03-26T21:39:44.737Z,6.60
2023-03-26T21:42:12.333Z,6.19
2023-03-26T21:44:39.686Z,7.04
2023-03-26T21:47:09.809Z,7.09
2023-03-26T21:49:38.497Z,7.90
2023-03-26T21:52:06.161Z,6.93
2023-03-26T21:54:33.252Z,6.43
2023-03-26T21:57:33.105Z,7.82
2023-03-26T22:00:14.256Z,7.98
2023-03-26T22:02:51.397Z,6.73
2023-03-26T22:05:19.881Z,7.59
2023-03-26T22:07:56.510Z,7.57
2023-03-26T22:10:23.399Z,7.51
2023-03-26T22:12:51.645Z,7.46
2023-03-26T22:15:18.973Z,7.33
2023-03-26T22:17:46.169Z,7.02
2023-03-26T22:20:14.716Z,7.67
2023-03-26T22:22:48.716Z,6.92
2023-03-26T22:25:15.650Z,7.28
2023-03-26T22:27:43.808Z,7.34
2023-03-26T22:30:13.854Z,7.56
2023-03-26T22:32:40.500Z,7.78
2023-03-26T22:35:07.919Z,6.42
2023-03-26T22:37:35.580Z,7.23
2023-03-26T22:40:02.205Z,7.11
2023-03-26T22:42:28.716Z,6.80
2023-03-26T22:44:55.313Z,7.41
2023-03-26T22:47:23.270Z,7.06
2023-03-26T22:49:49.810Z,6.47
2023-03-26T22:52:16.399Z,6.63
2023-03-26T22:54:43.034Z,7.11
2023-03-26T22:57:09.825Z,6.88
2023-03-26T22:59:36.648Z,7.48
2023-03-26T23:02:03.405Z,7.26
2023-03-26T23:04:32.352Z,7.58
2023-03-26T23:06:59.515Z,7.31
2023-03-26T23:09:26.248Z,7.20
2023-03-26T23:11:52.838Z,7.75
2023-03-26T23:14:19.386Z,6.77
2023-03-26T23:16:45.978Z,7.08
2023-03-26T23:19:12.494Z,6.45
2023-03-26T23:21:40.377Z,6.50
2023-03-26T23:24:07.048Z,6.84
2023-03-26T23:26:43.942Z,7.18
2023-03-26T23:29:16.551Z,7.59
2023-03-26T23:31:43.194Z,7.42
2023-03-26T23:34:10.944Z,6.41
2023-03-26T23:36:37.494Z,6.49
2023-03-26T23:39:05.400Z,6.86
2023-03-26T23:41:31.949Z,6.63
2023-03-26T23:43:58.516Z,7.66
2023-03-26T23:46:30.176Z,7.69
2023-03-26T23:48:59.746Z,7.64
2023-03-26T23:51:26.620Z,7.23
2023-03-26T23:53:53.724Z,7.51
2023-03-26T23:56:21.857Z,7.46
2023-03-26T23:58:49.019Z,7.64
